Time;durP1;ratioP1;P1;durP2;ratioP2;P2;SDS_P1;SDS_P2;PMS_P1;PMS_P2;Temp;Humidity;BMP_temperature;BMP_pressure;BME280_temperature;BME280_humidity;BME280_pressure;Samples;Min_cycle;Max_cycle;Signal;HPM_P1;HPM_P2
2022/03/28 00:01:53;;;;;;;6.35;2.40;;;0.60;99.90;;;;;;4936944;29;20430;-85
2022/03/28 00:04:21;;;;;;;6.13;2.40;;;0.60;99.90;;;;;;4898912;29;20420;-85
2022/03/28 00:06:48;;;;;;;5.93;2.60;;;0.60;99.90;;;;;;4929995;29;20411;-83
2022/03/28 00:09:16;;;;;;;8.18;2.78;;;0.70;99.90;;;;;;4915429;29;20396;-84
2022/03/28 00:11:44;;;;;;;6.40;2.87;;;0.80;99.90;;;;;;4929972;29;20411;-86
2022/03/28 00:14:11;;;;;;;5.43;2.72;;;0.80;99.90;;;;;;4930038;29;20404;-85
2022/03/28 00:16:39;;;;;;;7.68;2.90;;;0.90;99.90;;;;;;4898859;29;20403;-86
2022/03/28 00:19:07;;;;;;;4.82;2.55;;;0.90;99.90;;;;;;4929968;29;20403;-84
2022/03/28 00:21:35;;;;;;;7.03;2.72;;;0.90;99.90;;;;;;4914345;29;20406;-85
2022/03/28 00:24:03;;;;;;;7.95;3.25;;;0.90;99.90;;;;;;4898537;29;20411;-84
2022/03/28 00:26:31;;;;;;;6.47;3.40;;;1.00;99.90;;;;;;4914152;29;20399;-84
2022/03/28 00:28:59;;;;;;;9.40;3.30;;;1.00;99.90;;;;;;4914165;29;20427;-83
2022/03/28 00:31:27;;;;;;;7.80;3.37;;;0.90;99.90;;;;;;4915322;29;20458;-85
2022/03/28 00:33:55;;;;;;;8.45;3.63;;;0.90;99.90;;;;;;4929816;29;20883;-84
2022/03/28 00:36:22;;;;;;;7.85;3.30;;;0.90;99.90;;;;;;4914575;29;20481;-84
2022/03/28 00:38:51;;;;;;;9.93;3.58;;;0.90;99.90;;;;;;4917302;29;20403;-84
2022/03/28 00:41:19;;;;;;;6.45;2.90;;;0.90;99.90;;;;;;4918620;29;20757;-85
2022/03/28 00:43:59;;;;;;;9.25;3.45;;;1.00;99.90;;;;;;4901802;29;20415;-85
2022/03/28 00:46:27;;;;;;;8.80;3.65;;;1.00;99.90;;;;;;4933181;29;20895;-85
2022/03/28 00:48:55;;;;;;;10.05;3.20;;;1.10;99.90;;;;;;4917175;29;20399;-85
2022/03/28 00:51:23;;;;;;;8.63;3.67;;;1.00;99.90;;;;;;4918677;29;20403;-85
2022/03/28 00:53:51;;;;;;;9.50;3.53;;;1.00;99.90;;;;;;4932990;29;20508;-84
2022/03/28 00:56:20;;;;;;;10.90;3.40;;;1.00;99.90;;;;;;4917523;29;20459;-85
2022/03/28 00:58:47;;;;;;;7.72;3.25;;;1.00;99.90;;;;;;4917205;29;20431;-85
2022/03/28 01:01:15;;;;;;;10.73;3.60;;;1.10;99.90;;;;;;4935568;29;20409;-84
2022/03/28 01:03:44;;;;;;;10.20;3.70;;;1.10;99.90;;;;;;4937098;29;20817;-85
2022/03/28 01:06:12;;;;;;;9.23;3.33;;;1.10;99.90;;;;;;4936154;29;20489;-85
2022/03/28 01:08:40;;;;;;;7.63;3.47;;;1.10;99.90;;;;;;4935861;29;20400;-85
2022/03/28 01:11:12;;;;;;;9.55;3.90;;;1.10;99.90;;;;;;4937096;29;20565;-84
2022/03/28 01:13:41;;;;;;;7.43;3.65;;;1.10;99.90;;;;;;4951954;29;20406;-84
2022/03/28 01:16:09;;;;;;;9.23;3.50;;;1.10;99.90;;;;;;4935960;29;20401;-85
2022/03/28 01:18:46;;;;;;;11.77;4.35;;;1.20;99.90;;;;;;4951630;29;20481;-84
2022/03/28 01:21:15;;;;;;;8.10;3.80;;;1.10;99.90;;;;;;4951820;29;20402;-84
2022/03/28 01:23:42;;;;;;;9.30;4.20;;;1.10;99.90;;;;;;4936696;29;20409;-84
2022/03/28 01:26:12;;;;;;;10.25;4.20;;;1.20;99.90;;;;;;4920258;29;20434;-84
2022/03/28 01:28:39;;;;;;;10.20;3.58;;;1.20;99.90;;;;;;4936682;29;20394;-85
2022/03/28 01:31:07;;;;;;;9.90;3.97;;;1.20;99.90;;;;;;4936787;29;20397;-85
2022/03/28 01:33:35;;;;;;;8.95;4.35;;;1.20;99.90;;;;;;4951336;29;20433;-84
2022/03/28 01:36:03;;;;;;;9.50;3.83;;;1.30;99.90;;;;;;4936643;29;20398;-84
2022/03/28 01:38:31;;;;;;;12.63;4.50;;;1.20;99.90;;;;;;4951513;29;20413;-84
2022/03/28 01:40:59;;;;;;;10.57;3.90;;;1.20;99.90;;;;;;4919766;29;20405;-85
2022/03/28 01:43:26;;;;;;;10.30;4.30;;;1.20;99.90;;;;;;4936311;29;20526;-85
2022/03/28 01:45:54;;;;;;;10.30;4.18;;;1.10;99.90;;;;;;4936555;29;20398;-84
2022/03/28 01:48:22;;;;;;;10.48;4.20;;;1.20;99.90;;;;;;4936027;29;20472;-86
2022/03/28 01:50:49;;;;;;;12.05;4.60;;;1.20;99.90;;;;;;4935833;29;20387;-85
2022/03/28 01:53:17;;;;;;;9.43;4.40;;;1.10;99.90;;;;;;4936298;29;20398;-85
2022/03/28 01:55:45;;;;;;;10.13;4.35;;;1.10;99.90;;;;;;4936239;29;20964;-84
2022/03/28 01:58:12;;;;;;;10.52;4.82;;;1.10;99.90;;;;;;4934983;29;20453;-86
2022/03/28 02:00:40;;;;;;;12.23;4.82;;;1.10;99.90;;;;;;4936013;29;20797;-84
2022/03/28 02:03:09;;;;;;;9.93;4.90;;;1.10;99.90;;;;;;4936120;29;20425;-86
2022/03/28 02:05:37;;;;;;;12.80;5.07;;;1.00;99.90;;;;;;4936220;29;20393;-85
2022/03/28 02:08:04;;;;;;;11.40;4.95;;;1.00;99.90;;;;;;4934428;29;20432;-83
2022/03/28 02:10:32;;;;;;;11.60;4.40;;;1.00;99.90;;;;;;4935474;29;20460;-84
2022/03/28 02:13:00;;;;;;;8.27;4.43;;;1.10;99.90;;;;;;4919115;29;20653;-86
2022/03/28 02:15:27;;;;;;;10.25;4.68;;;1.00;99.90;;;;;;4935895;29;20577;-85
2022/03/28 02:17:55;;;;;;;10.52;4.63;;;1.00;99.90;;;;;;4934813;29;20814;-86
2022/03/28 02:20:23;;;;;;;9.07;4.47;;;1.00;99.90;;;;;;4934930;29;20784;-85
2022/03/28 02:22:51;;;;;;;11.45;5.20;;;1.00;99.90;;;;;;4934703;29;20489;-85
2022/03/28 02:25:19;;;;;;;13.75;5.53;;;1.00;99.90;;;;;;4934745;29;20406;-84
2022/03/28 02:27:47;;;;;;;12.50;5.38;;;1.00;99.90;;;;;;4934862;29;20433;-85
2022/03/28 02:30:15;;;;;;;12.93;5.40;;;1.00;99.90;;;;;;4934394;29;20477;-85
2022/03/28 02:32:43;;;;;;;12.93;5.47;;;1.00;99.90;;;;;;4934519;29;20496;-84
2022/03/28 02:35:11;;;;;;;13.07;5.30;;;1.00;99.90;;;;;;4935688;29;20409;-85
2022/03/28 02:37:39;;;;;;;14.70;6.35;;;1.00;99.90;;;;;;4935678;29;20536;-85
2022/03/28 02:40:08;;;;;;;9.30;4.90;;;1.00;99.90;;;;;;4918657;29;20394;-86
2022/03/28 02:42:37;;;;;;;13.05;5.35;;;1.00;99.90;;;;;;4934326;29;20414;-85
2022/03/28 02:45:05;;;;;;;12.30;5.35;;;1.00;99.90;;;;;;4933937;29;20410;-85
2022/03/28 02:47:33;;;;;;;13.23;6.10;;;0.90;99.90;;;;;;4934159;29;20398;-85
2022/03/28 02:50:01;;;;;;;11.35;5.07;;;0.90;99.90;;;;;;4934269;29;20424;-84
2022/03/28 02:52:29;;;;;;;12.25;5.70;;;0.90;99.90;;;;;;4934177;29;20481;-85
2022/03/28 02:54:57;;;;;;;12.52;5.30;;;0.90;99.90;;;;;;4934233;29;20808;-86
2022/03/28 02:57:24;;;;;;;10.25;5.47;;;0.90;99.90;;;;;;4950212;29;20453;-84
2022/03/28 02:59:52;;;;;;;13.13;5.65;;;0.90;99.90;;;;;;4934209;29;20413;-85
2022/03/28 03:02:19;;;;;;;11.73;5.55;;;0.90;99.90;;;;;;4930548;29;20438;-85
2022/03/28 03:04:47;;;;;;;14.57;5.93;;;0.80;99.90;;;;;;4916010;29;20419;-85
2022/03/28 03:07:15;;;;;;;11.63;5.30;;;0.80;99.90;;;;;;4930784;29;20463;-84
2022/03/28 03:09:42;;;;;;;13.30;5.70;;;0.80;99.90;;;;;;4915799;29;20406;-85
2022/03/28 03:12:10;;;;;;;10.98;5.32;;;0.80;99.90;;;;;;4915075;29;20482;-85
2022/03/28 03:14:37;;;;;;;11.88;6.15;;;0.80;99.90;;;;;;4915153;29;20415;-85
2022/03/28 03:17:05;;;;;;;14.93;5.80;;;0.80;99.90;;;;;;4914868;29;20400;-85
2022/03/28 03:19:33;;;;;;;12.40;5.33;;;0.80;99.90;;;;;;4914675;29;20404;-86
2022/03/28 03:22:01;;;;;;;15.00;5.88;;;0.80;99.90;;;;;;4930422;29;20399;-85
2022/03/28 03:24:29;;;;;;;14.23;5.32;;;0.80;99.90;;;;;;4930321;29;20470;-84
2022/03/28 03:26:56;;;;;;;15.30;6.30;;;0.80;99.90;;;;;;4914748;29;20403;-84
2022/03/28 03:29:24;;;;;;;13.05;5.88;;;0.80;99.90;;;;;;4930505;29;20426;-84
2022/03/28 03:31:52;;;;;;;14.93;5.67;;;0.80;99.90;;;;;;4930406;29;20422;-84
2022/03/28 03:34:21;;;;;;;12.32;5.45;;;0.70;99.90;;;;;;4915899;29;20875;-85
2022/03/28 03:36:48;;;;;;;11.80;5.18;;;0.80;99.90;;;;;;4915784;29;20403;-83
2022/03/28 03:39:16;;;;;;;14.75;5.68;;;0.70;99.90;;;;;;4930405;29;20490;-83
2022/03/28 03:41:44;;;;;;;14.20;5.20;;;0.80;99.90;;;;;;4915625;29;20402;-86
2022/03/28 03:44:11;;;;;;;14.32;6.18;;;0.70;99.90;;;;;;4915619;29;20481;-84
2022/03/28 03:46:39;;;;;;;12.75;5.65;;;0.80;99.90;;;;;;4930351;29;20487;-85
2022/03/28 03:49:08;;;;;;;13.77;5.55;;;0.80;99.90;;;;;;4930484;29;20875;-83
2022/03/28 03:51:37;;;;;;;14.32;5.30;;;0.80;99.90;;;;;;4914412;29;20423;-85
2022/03/28 03:54:05;;;;;;;13.10;5.47;;;0.70;99.90;;;;;;4914395;29;20492;-84
2022/03/28 03:56:34;;;;;;;14.88;5.95;;;0.70;99.90;;;;;;4914421;29;20906;-86
2022/03/28 03:59:01;;;;;;;13.75;5.80;;;0.70;99.90;;;;;;4913859;29;20447;-85
2022/03/28 04:01:29;;;;;;;14.02;6.00;;;0.70;99.90;;;;;;4913986;29;20945;-86
2022/03/28 04:03:58;;;;;;;14.98;6.07;;;0.70;99.90;;;;;;4915612;29;20937;-84
2022/03/28 04:06:26;;;;;;;13.57;5.57;;;0.70;99.90;;;;;;4926513;29;20530;-85
2022/03/28 04:08:54;;;;;;;14.23;5.90;;;0.70;99.90;;;;;;4926688;29;20828;-85
2022/03/28 04:11:21;;;;;;;14.57;5.80;;;0.70;99.90;;;;;;4933134;29;20397;-85
2022/03/28 04:13:49;;;;;;;12.45;5.38;;;0.70;99.90;;;;;;4936540;29;20401;-85
2022/03/28 04:16:16;;;;;;;12.93;5.55;;;0.80;99.90;;;;;;4937119;29;20409;-85
2022/03/28 04:18:44;;;;;;;14.37;5.60;;;0.80;99.90;;;;;;4952856;29;20406;-85
2022/03/28 04:21:12;;;;;;;16.67;5.65;;;0.80;99.90;;;;;;4936768;29;20402;-85
2022/03/28 04:23:40;;;;;;;15.27;5.72;;;0.80;99.90;;;;;;4932881;29;20422;-85
2022/03/28 04:26:07;;;;;;;14.47;5.97;;;0.80;99.90;;;;;;4918796;29;20528;-84
2022/03/28 04:28:37;;;;;;;15.02;5.80;;;0.90;99.90;;;;;;4917864;29;20399;-85
2022/03/28 04:31:04;;;;;;;15.48;5.70;;;0.90;99.90;;;;;;4935617;29;20408;-85
2022/03/28 04:33:32;;;;;;;15.57;5.93;;;0.90;99.90;;;;;;4917584;29;20396;-85
2022/03/28 04:36:00;;;;;;;14.57;6.07;;;1.00;99.90;;;;;;4933150;29;20424;-87
2022/03/28 04:38:27;;;;;;;12.40;5.70;;;1.00;99.90;;;;;;4935707;29;20401;-84
2022/03/28 04:40:55;;;;;;;16.08;6.55;;;1.00;99.90;;;;;;4936603;29;20433;-84
2022/03/28 04:43:22;;;;;;;14.87;5.97;;;1.10;99.90;;;;;;4936486;29;20477;-84
2022/03/28 04:45:50;;;;;;;15.32;5.65;;;1.10;99.90;;;;;;4936284;29;20746;-84
2022/03/28 04:48:18;;;;;;;13.30;5.87;;;1.10;99.90;;;;;;4936543;29;20469;-85
2022/03/28 04:50:46;;;;;;;15.27;5.50;;;1.20;99.90;;;;;;4920539;29;20397;-85
2022/03/28 04:53:14;;;;;;;16.65;6.18;;;1.20;99.90;;;;;;4951842;29;20406;-85
2022/03/28 04:55:41;;;;;;;14.32;5.60;;;1.20;99.90;;;;;;4937358;29;20485;-85
2022/03/28 04:58:09;;;;;;;12.77;5.63;;;1.30;99.90;;;;;;4936423;29;20410;-85
2022/03/28 05:00:37;;;;;;;14.77;5.32;;;1.40;99.90;;;;;;4936685;29;20441;-85
2022/03/28 05:03:05;;;;;;;14.05;5.32;;;1.40;99.90;;;;;;4920684;29;20919;-85
2022/03/28 05:05:33;;;;;;;13.68;5.32;;;1.40;99.90;;;;;;4937017;29;20431;-84
2022/03/28 05:08:00;;;;;;;14.05;5.55;;;1.40;99.90;;;;;;4941755;29;20402;-84
2022/03/28 05:10:28;;;;;;;13.67;5.67;;;1.50;99.90;;;;;;4936994;29;20445;-82
2022/03/28 05:12:56;;;;;;;14.45;5.60;;;1.50;99.90;;;;;;4935921;29;20948;-86
2022/03/28 05:15:23;;;;;;;13.50;5.77;;;1.60;99.90;;;;;;4943079;29;21068;-83
2022/03/28 05:17:51;;;;;;;16.00;5.50;;;1.60;99.90;;;;;;4940906;29;20399;-85
2022/03/28 05:20:19;;;;;;;12.97;5.43;;;1.70;99.90;;;;;;4927120;29;20421;-84
2022/03/28 05:22:50;;;;;;;15.20;5.38;;;1.70;99.90;;;;;;4905192;29;20404;-83
2022/03/28 05:25:18;;;;;;;16.30;5.60;;;1.80;99.90;;;;;;4931063;29;20415;-83
2022/03/28 05:27:47;;;;;;;15.82;5.93;;;1.80;99.90;;;;;;4921370;29;20508;-83
2022/03/28 05:30:17;;;;;;;17.05;5.65;;;1.80;99.90;;;;;;4935596;29;20897;-85
2022/03/28 05:32:45;;;;;;;14.07;5.63;;;1.80;99.90;;;;;;4951428;29;20405;-84
2022/03/28 05:35:13;;;;;;;16.02;5.32;;;1.80;99.90;;;;;;4919953;29;20413;-83
2022/03/28 05:37:41;;;;;;;15.90;5.80;;;1.90;99.90;;;;;;4935346;29;20434;-83
2022/03/28 05:40:11;;;;;;;15.63;5.13;;;1.90;99.90;;;;;;4935445;29;20768;-83
2022/03/28 05:42:39;;;;;;;15.63;5.50;;;1.90;99.90;;;;;;4919998;29;20466;-83
2022/03/28 05:45:09;;;;;;;16.35;5.60;;;1.90;99.90;;;;;;4936462;29;20437;-83
2022/03/28 05:47:37;;;;;;;15.88;4.97;;;1.80;99.90;;;;;;4924641;29;20906;-82
2022/03/28 05:50:06;;;;;;;18.52;5.32;;;1.90;99.90;;;;;;4931926;29;20430;-83
2022/03/28 05:52:33;;;;;;;15.17;5.37;;;1.90;99.90;;;;;;4916208;29;20404;-83
2022/03/28 05:55:01;;;;;;;15.93;5.13;;;1.90;99.90;;;;;;4915998;29;20395;-83
2022/03/28 05:57:29;;;;;;;14.23;4.80;;;1.90;99.90;;;;;;4931874;29;20976;-83
2022/03/28 05:59:58;;;;;;;14.23;5.07;;;1.90;99.90;;;;;;4916078;29;20404;-84
2022/03/28 06:02:25;;;;;;;13.25;5.40;;;2.00;99.90;;;;;;4917186;29;20491;-83
2022/03/28 06:04:54;;;;;;;13.93;5.40;;;2.00;99.90;;;;;;4931708;29;20918;-83
2022/03/28 06:07:21;;;;;;;13.27;5.50;;;2.00;99.90;;;;;;4917090;29;20392;-84
2022/03/28 06:09:49;;;;;;;13.77;4.85;;;2.10;99.90;;;;;;4917032;29;20399;-85
2022/03/28 06:12:16;;;;;;;15.32;4.82;;;2.20;99.90;;;;;;4916975;29;20400;-84
2022/03/28 06:14:44;;;;;;;11.25;4.38;;;2.20;99.90;;;;;;4931654;29;20400;-83
2022/03/28 06:17:23;;;;;;;12.00;4.78;;;2.20;99.90;;;;;;4931562;29;20391;-84
2022/03/28 06:19:51;;;;;;;14.77;4.93;;;2.30;99.90;;;;;;4931626;29;20399;-84
2022/03/28 06:22:20;;;;;;;13.83;4.77;;;2.40;99.90;;;;;;4917006;29;20403;-83
2022/03/28 06:24:48;;;;;;;14.80;4.60;;;2.50;99.90;;;;;;4935383;29;20417;-84
2022/03/28 06:27:15;;;;;;;14.10;5.15;;;2.50;99.90;;;;;;4918909;29;20443;-84
2022/03/28 06:29:43;;;;;;;14.48;4.53;;;2.70;99.90;;;;;;4932842;29;20873;-84
2022/03/28 06:32:10;;;;;;;14.55;4.53;;;2.80;99.90;;;;;;4918600;29;20504;-83
2022/03/28 06:34:39;;;;;;;12.77;4.35;;;2.80;99.90;;;;;;4930176;29;20767;-83
2022/03/28 06:37:07;;;;;;;13.07;4.20;;;2.80;99.90;;;;;;4922742;29;20409;-84
2022/03/28 06:39:35;;;;;;;12.90;4.40;;;3.00;99.90;;;;;;4935436;29;20393;-83
2022/03/28 06:42:03;;;;;;;13.48;4.53;;;3.00;99.90;;;;;;4933806;29;20401;-85
2022/03/28 06:44:31;;;;;;;15.63;4.97;;;3.10;99.90;;;;;;4935274;29;20918;-84
2022/03/28 06:46:59;;;;;;;12.95;4.28;;;3.10;99.90;;;;;;4934215;29;20413;-84
2022/03/28 06:49:27;;;;;;;13.02;4.40;;;3.10;99.90;;;;;;4935107;29;20397;-83
2022/03/28 06:51:55;;;;;;;13.50;4.60;;;3.20;99.90;;;;;;4935481;29;20769;-83
2022/03/28 06:54:22;;;;;;;14.15;4.35;;;3.30;99.90;;;;;;4935128;29;20432;-84
2022/03/28 06:56:50;;;;;;;13.70;4.23;;;3.40;99.90;;;;;;4935248;29;20398;-82
2022/03/28 06:59:19;;;;;;;14.38;3.72;;;3.50;99.90;;;;;;4935187;29;20405;-84
2022/03/28 07:01:47;;;;;;;13.95;4.00;;;3.50;99.90;;;;;;4934842;29;20492;-84
2022/03/28 07:04:15;;;;;;;11.50;3.28;;;3.50;99.90;;;;;;4934833;29;20421;-83
2022/03/28 07:06:42;;;;;;;11.85;3.70;;;3.60;99.90;;;;;;4934895;29;20393;-84
2022/03/28 07:09:10;;;;;;;10.95;3.63;;;3.60;99.90;;;;;;4933731;29;20470;-84
2022/03/28 07:11:37;;;;;;;11.00;3.45;;;3.60;99.90;;;;;;4934752;29;20394;-85
2022/03/28 07:14:05;;;;;;;12.05;3.45;;;3.70;99.90;;;;;;4935245;29;20401;-84
2022/03/28 07:16:33;;;;;;;10.90;3.03;;;3.70;99.90;;;;;;4934891;29;20405;-84
2022/03/28 07:19:01;;;;;;;10.73;3.55;;;3.90;99.90;;;;;;4934887;29;20398;-83
2022/03/28 07:21:29;;;;;;;10.88;3.50;;;3.90;99.90;;;;;;4933791;29;20410;-84
2022/03/28 07:23:57;;;;;;;11.48;3.38;;;3.90;99.90;;;;;;4934815;29;20394;-83
2022/03/28 07:26:24;;;;;;;12.90;3.53;;;4.10;99.90;;;;;;4933652;29;20405;-84
2022/03/28 07:28:52;;;;;;;11.43;3.08;;;4.10;99.90;;;;;;4965581;28;20400;-83
2022/03/28 07:31:20;;;;;;;14.48;3.38;;;4.20;99.90;;;;;;4933767;29;20405;-84
2022/03/28 07:33:48;;;;;;;12.77;3.13;;;4.30;99.90;;;;;;4934734;29;20955;-85
2022/03/28 07:36:15;;;;;;;9.88;2.78;;;4.40;99.90;;;;;;4931814;29;20967;-84
2022/03/28 07:38:43;;;;;;;11.70;2.83;;;4.40;99.90;;;;;;4908879;29;20414;-85
2022/03/28 07:41:11;;;;;;;9.82;2.75;;;4.50;99.90;;;;;;4934648;29;20405;-85
2022/03/28 07:43:39;;;;;;;10.40;2.90;;;4.50;99.90;;;;;;4934937;29;20913;-85
2022/03/28 07:46:06;;;;;;;8.32;2.75;;;4.50;99.90;;;;;;4933408;29;20405;-85
2022/03/28 07:48:34;;;;;;;9.20;2.72;;;4.50;99.90;;;;;;4936409;29;20393;-85
2022/03/28 07:51:02;;;;;;;10.18;2.58;;;4.60;99.90;;;;;;4953247;29;20565;-86
2022/03/28 07:53:29;;;;;;;12.60;2.83;;;4.80;99.90;;;;;;4937051;29;20761;-85
2022/03/28 07:55:57;;;;;;;10.75;3.00;;;4.80;99.90;;;;;;4937012;29;20394;-85
2022/03/28 07:58:25;;;;;;;9.47;3.03;;;4.80;99.90;;;;;;4953221;29;20397;-85
2022/03/28 08:00:52;;;;;;;10.00;2.60;;;4.90;99.90;;;;;;4937040;29;20409;-85
2022/03/28 08:03:20;;;;;;;10.98;2.75;;;4.90;99.90;;;;;;4937272;29;20492;-85
2022/03/28 08:05:48;;;;;;;8.20;2.47;;;5.00;99.90;;;;;;4938361;29;20417;-86
2022/03/28 08:08:16;;;;;;;9.02;2.38;;;5.00;99.90;;;;;;4938396;29;20397;-85
2022/03/28 08:10:43;;;;;;;6.28;2.05;;;5.00;99.90;;;;;;4921469;29;20425;-86
2022/03/28 08:13:11;;;;;;;6.88;2.10;;;5.10;99.90;;;;;;4936917;29;20402;-86
2022/03/28 08:15:39;;;;;;;8.90;2.30;;;5.20;99.90;;;;;;4952929;29;20784;-89
2022/03/28 08:18:07;;;;;;;8.52;2.58;;;5.20;99.90;;;;;;4935860;29;20414;-88
2022/03/28 08:20:35;;;;;;;8.52;2.40;;;5.30;99.90;;;;;;4937083;29;20417;-86
2022/03/28 08:23:02;;;;;;;7.53;2.03;;;5.30;99.90;;;;;;4937002;29;20543;-85
2022/03/28 08:25:30;;;;;;;8.60;2.28;;;5.50;99.90;;;;;;4936691;29;20473;-86
2022/03/28 08:27:58;;;;;;;8.10;2.17;;;5.60;99.90;;;;;;4937759;29;20742;-86
2022/03/28 08:30:26;;;;;;;7.85;2.10;;;5.60;99.90;;;;;;4938211;29;20449;-85
2022/03/28 08:32:55;;;;;;;8.02;2.45;;;5.60;99.90;;;;;;4952398;29;20515;-85
2022/03/28 08:35:24;;;;;;;9.10;2.70;;;5.60;99.90;;;;;;4943569;29;20841;-87
2022/03/28 08:37:53;;;;;;;9.87;2.40;;;5.80;99.90;;;;;;4936825;29;20814;-85
2022/03/28 08:40:22;;;;;;;8.98;2.22;;;5.90;99.90;;;;;;4920958;29;20408;-84
2022/03/28 08:42:50;;;;;;;7.00;1.98;;;6.00;99.90;;;;;;4937689;29;20422;-86
2022/03/28 08:45:18;;;;;;;8.57;2.08;;;6.00;99.90;;;;;;4936285;29;20437;-88
2022/03/28 08:47:48;;;;;;;8.40;2.17;;;6.10;99.90;;;;;;4937430;29;20405;-84
2022/03/28 08:50:39;;;;;;;8.43;2.10;;;6.10;99.90;;;;;;4937420;29;20460;-85
2022/03/28 08:53:07;;;;;;;6.82;1.85;;;6.20;99.90;;;;;;4936104;29;20394;-86
2022/03/28 08:55:35;;;;;;;5.68;1.92;;;6.10;99.90;;;;;;4952090;29;20394;-84
2022/03/28 08:58:02;;;;;;;5.53;1.60;;;6.20;99.90;;;;;;4920026;29;20397;-84
2022/03/28 09:00:30;;;;;;;6.78;1.92;;;6.30;99.90;;;;;;4951511;29;20892;-85
2022/03/28 09:02:58;;;;;;;9.10;1.90;;;6.40;99.90;;;;;;4937353;29;20398;-85
2022/03/28 09:05:38;;;;;;;7.85;2.30;;;6.40;99.90;;;;;;4936884;29;20410;-84
2022/03/28 09:08:08;;;;;;;8.98;2.00;;;6.50;99.90;;;;;;4937028;29;20398;-84
2022/03/28 09:10:45;;;;;;;7.40;2.05;;;6.50;99.90;;;;;;4936846;29;20428;-85
2022/03/28 09:13:19;;;;;;;6.78;2.13;;;6.50;99.90;;;;;;4936989;29;20394;-85
2022/03/28 09:15:48;;;;;;;6.33;2.00;;;6.50;99.90;;;;;;4951294;29;20548;-84
2022/03/28 09:18:23;;;;;;;7.82;1.80;;;6.60;99.90;;;;;;4936748;29;20919;-83
2022/03/28 09:20:54;;;;;;;6.07;2.10;;;6.70;99.90;;;;;;4936838;29;20402;-85
2022/03/28 09:23:42;;;;;;;7.43;1.90;;;6.60;99.90;;;;;;4935728;29;20413;-84
2022/03/28 09:26:18;;;;;;;6.35;1.80;;;6.60;99.90;;;;;;4936491;29;20424;-84
2022/03/28 09:28:49;;;;;;;4.10;1.80;;;6.70;99.90;;;;;;4935313;29;20774;-84
2022/03/28 09:31:24;;;;;;;6.97;1.92;;;6.70;99.90;;;;;;4935395;29;20402;-85
2022/03/28 09:33:53;;;;;;;5.80;1.80;;;6.70;99.90;;;;;;4936596;29;20422;-86
2022/03/28 09:36:37;;;;;;;7.03;1.70;;;6.80;99.90;;;;;;4932906;29;20445;-85
2022/03/28 09:39:07;;;;;;;9.23;2.00;;;6.70;99.90;;;;;;4917434;29;20396;-85
2022/03/28 09:41:35;;;;;;;6.35;1.90;;;6.80;99.90;;;;;;4916184;29;20791;-84
2022/03/28 09:44:03;;;;;;;6.55;2.10;;;6.90;99.90;;;;;;4917264;29;20399;-84
2022/03/28 09:46:32;;;;;;;5.93;1.85;;;7.00;99.90;;;;;;4931606;29;20961;-84
2022/03/28 09:49:00;;;;;;;5.80;1.67;;;7.10;99.90;;;;;;4916098;29;20416;-84
2022/03/28 09:51:32;;;;;;;4.97;1.65;;;7.10;99.90;;;;;;4942463;29;20774;-83
2022/03/28 09:54:00;;;;;;;4.90;2.00;;;7.20;99.90;;;;;;4921384;29;20405;-84
2022/03/28 09:56:28;;;;;;;6.03;1.70;;;7.20;99.90;;;;;;4936058;29;20497;-83
2022/03/28 09:58:59;;;;;;;7.68;1.92;;;7.30;99.90;;;;;;4949741;29;20442;-84
2022/03/28 10:01:35;;;;;;;7.55;1.95;;;7.30;99.90;;;;;;4935760;29;20412;-84
2022/03/28 10:04:11;;;;;;;6.38;1.83;;;7.30;99.90;;;;;;4935903;29;20861;-83
2022/03/28 10:06:39;;;;;;;4.65;1.63;;;7.30;99.90;;;;;;4935687;29;20414;-83
2022/03/28 10:09:09;;;;;;;4.72;1.80;;;7.30;99.90;;;;;;4934536;29;20404;-83
2022/03/28 10:11:37;;;;;;;4.22;1.60;;;7.40;99.90;;;;;;4934823;29;20401;-84
2022/03/28 10:14:04;;;;;;;5.20;1.80;;;7.40;99.90;;;;;;4935647;29;20397;-83
2022/03/28 10:16:33;;;;;;;4.57;1.70;;;7.30;99.90;;;;;;4934156;29;20402;-84
2022/03/28 10:19:02;;;;;;;4.32;1.67;;;7.40;99.90;;;;;;4917979;29;20968;-84
2022/03/28 10:21:33;;;;;;;3.67;1.35;;;7.40;99.90;;;;;;4950056;29;20402;-84
2022/03/28 10:24:20;;;;;;;5.72;1.67;;;7.40;99.90;;;;;;4934286;29;20426;-84
2022/03/28 10:26:53;;;;;;;5.17;1.63;;;7.50;99.90;;;;;;4935447;29;20425;-83
2022/03/28 10:29:22;;;;;;;6.20;1.70;;;7.50;99.90;;;;;;4934249;29;21018;-83
2022/03/28 10:31:53;;;;;;;5.70;1.60;;;7.40;99.90;;;;;;4923427;29;20509;-84
2022/03/28 10:34:52;;;;;;;5.30;1.60;;;7.50;99.90;;;;;;4916240;29;20875;-83
2022/03/28 10:37:30;;;;;;;4.47;1.60;;;7.40;99.90;;;;;;4925038;29;20444;-84
2022/03/28 10:40:19;;;;;;;3.95;1.40;;;7.30;99.90;;;;;;4933738;29;20405;-84
2022/03/28 10:43:19;;;;;;;5.70;1.70;;;7.30;99.90;;;;;;4933967;29;20404;-84
2022/03/28 10:45:51;;;;;;;5.70;1.98;;;7.30;99.90;;;;;;4903497;29;20452;-84
2022/03/28 10:48:39;;;;;;;5.90;1.98;;;7.30;99.90;;;;;;4933948;29;20390;-83
2022/03/28 10:51:13;;;;;;;6.40;1.80;;;7.40;99.90;;;;;;4932545;29;20934;-83
2022/03/28 10:53:58;;;;;;;6.95;2.13;;;7.40;99.90;;;;;;4949205;29;20468;-83
2022/03/28 10:56:27;;;;;;;4.90;1.77;;;7.40;99.90;;;;;;4921890;29;20464;-83
2022/03/28 10:58:58;;;;;;;5.72;1.95;;;7.50;99.90;;;;;;4928216;29;20420;-84
2022/03/28 11:01:27;;;;;;;3.92;1.85;;;7.40;99.90;;;;;;4918297;29;20467;-84
2022/03/28 11:04:05;;;;;;;4.43;1.48;;;7.40;99.90;;;;;;4915560;29;20472;-83
2022/03/28 11:06:45;;;;;;;4.87;1.80;;;7.40;99.90;;;;;;4920397;29;20416;-83
2022/03/28 11:09:13;;;;;;;4.03;1.70;;;7.40;99.90;;;;;;4914608;29;20423;-83
2022/03/28 11:12:00;;;;;;;5.63;1.90;;;7.40;99.90;;;;;;4920569;29;20410;-84
2022/03/28 11:14:52;;;;;;;6.07;2.00;;;7.50;99.90;;;;;;4918314;29;20420;-83
2022/03/28 11:17:57;;;;;;;4.32;1.60;;;7.50;99.90;;;;;;4924632;29;21033;-84
2022/03/28 11:20:28;;;;;;;4.32;1.60;;;7.50;99.90;;;;;;4942255;29;20397;-84
2022/03/28 11:23:06;;;;;;;9.30;1.80;;;7.50;99.90;;;;;;4934598;29;20412;-84
2022/03/28 11:25:36;;;;;;;5.07;1.80;;;7.50;99.90;;;;;;4914569;29;20439;-84
2022/03/28 11:28:26;;;;;;;7.63;2.10;;;7.60;99.90;;;;;;4916272;29;20434;-84
2022/03/28 11:31:11;;;;;;;4.80;1.80;;;7.60;99.90;;;;;;4915750;29;20654;-84
2022/03/28 11:33:48;;;;;;;5.38;2.10;;;7.70;99.90;;;;;;4920525;29;20455;-84
2022/03/28 11:36:22;;;;;;;5.47;1.90;;;7.80;99.90;;;;;;4915424;29;20459;-84
2022/03/28 11:38:55;;;;;;;5.20;1.80;;;7.90;99.90;;;;;;4914330;29;20774;-83
2022/03/28 11:41:25;;;;;;;5.80;2.13;;;8.00;99.90;;;;;;4935810;29;20396;-83
2022/03/28 11:43:55;;;;;;;6.82;2.00;;;8.00;99.90;;;;;;4934328;29;20405;-84
2022/03/28 11:46:27;;;;;;;5.90;1.98;;;8.10;99.90;;;;;;4949024;29;20420;-84
2022/03/28 11:49:04;;;;;;;6.45;2.00;;;8.20;99.90;;;;;;4934601;29;20397;-84
2022/03/28 11:51:40;;;;;;;4.85;1.95;;;8.20;99.90;;;;;;4933122;29;20426;-84
2022/03/28 11:54:11;;;;;;;7.22;2.10;;;8.20;99.90;;;;;;4933068;29;20398;-84
2022/03/28 11:59:31;;;;;;;4.82;1.95;;;8.00;99.90;;;;;;4934204;29;20747;-85
2022/03/28 12:02:07;;;;;;;5.47;2.10;;;8.00;99.90;;;;;;4932797;29;20406;-85
2022/03/28 12:04:46;;;;;;;5.53;2.10;;;7.90;99.90;;;;;;4932992;29;20430;-84
2022/03/28 12:07:15;;;;;;;4.57;1.90;;;7.90;99.90;;;;;;4932802;29;20442;-84
2022/03/28 12:09:44;;;;;;;7.80;2.13;;;7.80;99.90;;;;;;4933067;29;20404;-85
2022/03/28 12:12:12;;;;;;;5.33;2.40;;;7.80;99.90;;;;;;4932959;29;20394;-84
2022/03/28 12:14:43;;;;;;;5.50;2.13;;;7.70;99.90;;;;;;4933067;29;20397;-84
2022/03/28 12:17:11;;;;;;;8.40;2.15;;;7.80;99.90;;;;;;4917000;29;20413;-83
2022/03/28 12:19:38;;;;;;;7.78;2.40;;;7.80;99.90;;;;;;4933167;29;20801;-84
2022/03/28 12:22:18;;;;;;;6.10;2.33;;;7.90;99.90;;;;;;4930166;29;20414;-83
2022/03/28 12:24:53;;;;;;;5.00;2.20;;;7.90;99.90;;;;;;4928394;29;20429;-83
2022/03/28 12:27:21;;;;;;;4.63;2.30;;;8.00;99.90;;;;;;4912713;29;20801;-84
2022/03/28 12:29:52;;;;;;;6.20;2.35;;;7.90;99.90;;;;;;4926926;29;20490;-83
2022/03/28 12:32:21;;;;;;;4.47;2.35;;;7.80;99.90;;;;;;4928202;29;20835;-84
2022/03/28 12:34:49;;;;;;;7.63;2.30;;;7.80;99.90;;;;;;4926840;29;20410;-84
2022/03/28 12:37:17;;;;;;;7.97;2.53;;;7.80;99.90;;;;;;4930486;29;20403;-83
2022/03/28 12:39:46;;;;;;;5.97;2.30;;;7.80;99.90;;;;;;4944168;28;20396;-83
2022/03/28 12:42:27;;;;;;;6.72;2.70;;;7.80;99.90;;;;;;4926618;29;20408;-84
2022/03/28 12:44:55;;;;;;;6.88;2.42;;;7.90;99.90;;;;;;4945369;29;20916;-83
2022/03/28 12:47:29;;;;;;;6.03;2.47;;;7.90;99.90;;;;;;4928908;29;20412;-85
2022/03/28 12:49:57;;;;;;;6.63;2.60;;;8.00;99.90;;;;;;4933218;29;20398;-85
2022/03/28 12:52:31;;;;;;;5.85;3.00;;;8.00;99.90;;;;;;4936155;29;20460;-85
2022/03/28 12:54:59;;;;;;;6.97;2.63;;;7.90;99.90;;;;;;4951933;29;20398;-86
2022/03/28 12:57:30;;;;;;;7.50;2.90;;;7.80;99.90;;;;;;4916965;29;20463;-85
2022/03/28 12:59:58;;;;;;;10.07;2.83;;;7.70;99.90;;;;;;4919408;29;20812;-85
2022/03/28 13:02:26;;;;;;;6.63;2.72;;;7.70;99.90;;;;;;4927569;29;20421;-84
2022/03/28 13:04:58;;;;;;;6.05;2.58;;;7.60;99.90;;;;;;4934617;29;20428;-85
2022/03/28 13:07:29;;;;;;;7.18;2.60;;;7.50;99.90;;;;;;4936891;29;20414;-85
2022/03/28 13:09:59;;;;;;;9.68;3.65;;;7.50;99.90;;;;;;4920137;29;20463;-85